createdAt,value
2018-11-20T00:00:21.081Z,100739.53
2018-11-20T00:03:08.097Z,100737.48
2018-11-20T00:05:55.193Z,100734.27
2018-11-20T00:08:38.016Z,100739.13
2018-11-20T00:11:17.168Z,100730.81
2018-11-20T00:14:08.060Z,100722.84
2018-11-20T00:16:50.772Z,100718.67
2018-11-20T00:19:42.250Z,100719.89
2018-11-20T00:22:30.713Z,100710.45
2018-11-20T00:25:28.026Z,100702.77
2018-11-20T00:28:14.109Z,100701.47
2018-11-20T00:30:56.327Z,100695.06
2018-11-20T00:33:48.164Z,100689.28
2018-11-20T00:36:39.450Z,100693.33
2018-11-20T00:39:32.411Z,100688.53
2018-11-20T00:42:27.907Z,100683.66
2018-11-20T00:45:22.216Z,100682.78
2018-11-20T00:48:09.150Z,100676.12
2018-11-20T00:51:09.536Z,100674.78
2018-11-20T00:54:01.002Z,100671.22
2018-11-20T00:56:51.091Z,100671.64
2018-11-20T00:59:38.714Z,100660.52
2018-11-20T01:02:25.552Z,100667.27
2018-11-20T01:05:13.375Z,100654.78
2018-11-20T01:08:00.463Z,100653.33
2018-11-20T01:10:47.592Z,100644.05
2018-11-20T01:13:34.414Z,100647.84
2018-11-20T01:16:35.390Z,100646.52
2018-11-20T01:19:40.545Z,100643.98
2018-11-20T01:22:28.827Z,100640.99
2018-11-20T01:25:23.782Z,100641.47
2018-11-20T01:28:24.737Z,100638.05
2018-11-20T01:31:13.544Z,100634.42
2018-11-20T01:34:01.919Z,100629.26
2018-11-20T01:36:50.473Z,100625.22
2018-11-20T01:39:45.392Z,100624.19
2018-11-20T01:42:34.828Z,100613.44
2018-11-20T01:45:29.115Z,100621.05
2018-11-20T01:48:23.092Z,100619.61
2018-11-20T01:51:10.504Z,100623.09
2018-11-20T01:53:59.325Z,100623.51
2018-11-20T01:56:59.780Z,100620.57
2018-11-20T01:59:50.769Z,100611.78
2018-11-20T02:02:29.695Z,100602.88
2018-11-20T02:05:22.609Z,100593.34
2018-11-20T02:08:04.812Z,100589.08
2018-11-20T02:10:52.202Z,100586.61
2018-11-20T02:13:59.605Z,100601.32
2018-11-20T02:16:51.064Z,100602.64
2018-11-20T02:19:38.046Z,100596.30
2018-11-20T02:22:16.407Z,100597.72
2018-11-20T02:25:04.375Z,100592.16
2018-11-20T02:27:52.518Z,100585.84
2018-11-20T02:30:49.646Z,100587.92
2018-11-20T02:33:33.360Z,100588.43
2018-11-20T02:36:22.121Z,100577.53
2018-11-20T02:39:10.815Z,100574.64
2018-11-20T02:42:03.944Z,100566.02
2018-11-20T02:44:50.879Z,100565.94
2018-11-20T02:47:38.545Z,100555.77
2018-11-20T02:50:31.552Z,100556.81
2018-11-20T02:53:31.927Z,100562.36
2018-11-20T02:56:29.411Z,100561.32
2018-11-20T02:59:21.654Z,100557.81
2018-11-20T03:02:10.473Z,100558.63
2018-11-20T03:04:57.393Z,100553.72
2018-11-20T03:07:49.030Z,100563.83
2018-11-20T03:10:37.821Z,100560.69
2018-11-20T03:13:29.919Z,100564.52
2018-11-20T03:16:17.154Z,100561.88
2018-11-20T03:19:05.451Z,100560.55
2018-11-20T03:21:43.248Z,100555.94
2018-11-20T03:24:37.675Z,100552.86
2018-11-20T03:27:35.160Z,100546.26
2018-11-20T03:31:20.103Z,100552.98
2018-11-20T03:34:16.927Z,100549.28
2018-11-20T03:37:04.640Z,100542.66
2018-11-20T03:40:11.028Z,100531.02
2018-11-20T03:42:49.036Z,100517.63
2018-11-20T03:45:49.919Z,100497.12
2018-11-20T03:48:57.930Z,100504.16
2018-11-20T03:51:52.483Z,100518.48
2018-11-20T03:54:59.342Z,100509.37
2018-11-20T03:57:53.882Z,100513.06
2018-11-20T04:00:50.301Z,100502.77
2018-11-20T04:03:37.644Z,100507.55
2018-11-20T04:06:16.553Z,100509.02
2018-11-20T04:09:11.900Z,100508.88
2018-11-20T04:12:04.101Z,100489.78
2018-11-20T04:14:52.182Z,100491.49
2018-11-20T04:17:44.529Z,100492.52
2018-11-20T04:20:32.328Z,100498.11
2018-11-20T04:23:36.034Z,100492.70
2018-11-20T04:26:26.982Z,100494.53
2018-11-20T04:29:17.931Z,100488.33
2018-11-20T04:32:16.870Z,100480.35
2018-11-20T04:35:24.469Z,100478.94
2018-11-20T04:38:15.358Z,100475.22
2018-11-20T04:41:02.707Z,100475.33
2018-11-20T04:44:06.436Z,100481.16
2018-11-20T04:46:53.669Z,100471.52
2018-11-20T04:49:43.739Z,100467.64
2018-11-20T04:52:23.142Z,100464.61
2018-11-20T04:55:12.384Z,100471.51
2018-11-20T04:58:11.484Z,100475.28
2018-11-20T05:01:05.594Z,100470.53
2018-11-20T05:03:44.784Z,100469.73
2018-11-20T05:06:39.397Z,100464.64
2018-11-20T05:09:41.738Z,100468.39
2018-11-20T05:12:30.084Z,100466.08
2018-11-20T05:15:27.533Z,100458.20
2018-11-20T05:18:16.242Z,100462.62
2018-11-20T05:21:05.059Z,100464.13
2018-11-20T05:23:42.728Z,100459.28
2018-11-20T05:26:46.948Z,100456.44
2018-11-20T05:29:34.241Z,100441.72
2018-11-20T05:32:26.020Z,100445.09
2018-11-20T05:35:07.073Z,100438.14
2018-11-20T05:37:53.074Z,100441.52
2018-11-20T05:41:00.209Z,100432.31
2018-11-20T05:43:49.889Z,100428.04
2018-11-20T05:46:36.598Z,100425.91
2018-11-20T05:49:24.943Z,100428.49
2018-11-20T05:52:13.739Z,100419.80
2018-11-20T05:55:01.558Z,100421.98
2018-11-20T05:57:49.820Z,100414.18
2018-11-20T06:00:37.717Z,100414.39
2018-11-20T06:03:39.188Z,100418.36
2018-11-20T06:06:37.261Z,100413.95
2018-11-20T06:09:46.023Z,100427.27
2018-11-20T06:12:45.682Z,100415.63
2018-11-20T06:15:32.955Z,100414.69
2018-11-20T06:18:37.555Z,100416.22
2018-11-20T06:21:31.645Z,100410.38
2018-11-20T06:24:19.941Z,100410.89
2018-11-20T06:27:08.802Z,100415.48
2018-11-20T06:30:15.697Z,100412.12
2018-11-20T06:33:02.552Z,100407.52
2018-11-20T06:35:49.593Z,100398.88
2018-11-20T06:38:37.359Z,100405.03
2018-11-20T06:41:29.120Z,100398.33
2018-11-20T06:44:16.015Z,100401.97
2018-11-20T06:47:03.121Z,100399.03
2018-11-20T06:49:54.430Z,100402.97
2018-11-20T06:52:43.731Z,100411.23
2018-11-20T06:55:50.465Z,100405.16
2018-11-20T06:58:38.827Z,100414.36
2018-11-20T07:01:27.599Z,100408.78
2018-11-20T07:04:15.113Z,100410.64
2018-11-20T07:07:02.144Z,100410.70
2018-11-20T07:10:05.616Z,100402.94
2018-11-20T07:12:57.394Z,100402.13
2018-11-20T07:15:54.071Z,100413.15
2018-11-20T07:18:40.972Z,100416.44
2018-11-20T07:21:31.140Z,100410.48
2018-11-20T07:24:18.877Z,100409.39
2018-11-20T07:27:07.619Z,100412.02
2018-11-20T07:30:14.340Z,100412.92
2018-11-20T07:33:02.131Z,100414.91
2018-11-20T07:36:03.333Z,100417.75
2018-11-20T07:38:51.484Z,100410.88
2018-11-20T07:41:38.598Z,100417.16
2018-11-20T07:44:33.442Z,100418.62
2018-11-20T07:47:20.806Z,100417.81
2018-11-20T07:50:11.676Z,100409.38
2018-11-20T07:53:12.269Z,100407.67
2018-11-20T07:55:59.277Z,100406.14
2018-11-20T07:58:46.862Z,100397.20
2018-11-20T08:01:29.932Z,100406.34
2018-11-20T08:04:27.512Z,100398.88
2018-11-20T08:07:15.546Z,100397.19
2018-11-20T08:10:04.349Z,100398.27
2018-11-20T08:12:59.126Z,100395.32
2018-11-20T08:15:51.754Z,100394.34
2018-11-20T08:18:48.889Z,100394.02
2018-11-20T08:21:36.286Z,100394.78
2018-11-20T08:24:24.631Z,100390.39
2018-11-20T08:27:12.917Z,100394.92
2018-11-20T08:30:13.153Z,100389.92
2018-11-20T08:33:00.571Z,100391.20
2018-11-20T08:35:51.876Z,100393.45
2018-11-20T08:38:45.541Z,100395.95
2018-11-20T08:41:33.670Z,100389.31
2018-11-20T08:44:33.358Z,100384.55
2018-11-20T08:47:20.888Z,100373.69
2018-11-20T08:50:11.846Z,100389.23
2018-11-20T08:53:06.009Z,100375.22
2018-11-20T08:56:04.484Z,100375.80
2018-11-20T08:58:53.790Z,100373.98
2018-11-20T09:01:44.795Z,100378.58
2018-11-20T09:04:35.703Z,100380.11
2018-11-20T09:07:39.642Z,100378.50
2018-11-20T09:10:27.310Z,100383.19
2018-11-20T09:13:15.519Z,100374.98
2018-11-20T09:16:13.493Z,100375.06
2018-11-20T09:19:01.081Z,100383.40
2018-11-20T09:22:00.023Z,100373.73
2018-11-20T09:24:46.854Z,100367.62
2018-11-20T09:27:27.558Z,100376.45
2018-11-20T09:30:16.293Z,100366.14
2018-11-20T09:33:01.132Z,100370.97
2018-11-20T09:36:10.387Z,100368.72
2018-11-20T09:39:04.612Z,100363.33
2018-11-20T09:41:53.514Z,100369.48
2018-11-20T09:45:14.666Z,100369.77
2018-11-20T09:48:01.558Z,100366.74
2018-11-20T09:51:03.844Z,100368.31
2018-11-20T09:53:51.633Z,100367.05
2018-11-20T09:56:29.843Z,100370.53
2018-11-20T09:59:24.044Z,100357.04
2018-11-20T10:02:10.824Z,100360.89
2018-11-20T10:04:50.612Z,100368.08
2018-11-20T10:07:41.804Z,100363.86
2018-11-20T10:10:30.163Z,100358.16
2018-11-20T10:13:27.797Z,100363.27
2018-11-20T10:16:26.102Z,100362.92
2018-11-20T10:19:14.467Z,100354.47
2018-11-20T10:22:11.395Z,100353.64
2018-11-20T10:25:04.569Z,100354.52
2018-11-20T10:27:52.044Z,100351.77
2018-11-20T10:30:29.003Z,100348.75
2018-11-20T10:33:14.003Z,100345.25
2018-11-20T10:36:01.662Z,100333.33
2018-11-20T10:38:53.122Z,100333.34
2018-11-20T10:41:54.640Z,100323.49
2018-11-20T10:44:40.830Z,100315.98
2018-11-20T10:47:30.077Z,100322.11
2018-11-20T10:50:17.448Z,100315.58
2018-11-20T10:53:14.485Z,100316.61
2018-11-20T10:56:01.433Z,100309.59
2018-11-20T10:58:47.878Z,100308.56
2018-11-20T11:01:22.785Z,100304.22
2018-11-20T11:04:23.424Z,100304.63
2018-11-20T11:07:01.749Z,100300.88
2018-11-20T11:10:04.371Z,100296.45
2018-11-20T11:12:52.118Z,100293.14
2018-11-20T11:15:50.072Z,100289.14
2018-11-20T11:18:47.758Z,100282.17
2018-11-20T11:21:38.382Z,100283.84
2018-11-20T11:24:25.805Z,100280.64
2018-11-20T11:27:05.569Z,100287.70
2018-11-20T11:30:06.190Z,100286.28
2018-11-20T11:32:56.071Z,100276.36
2018-11-20T11:35:56.887Z,100280.55
2018-11-20T11:38:40.774Z,100278.72
2018-11-20T11:41:29.104Z,100267.33
2018-11-20T11:44:26.892Z,100272.09
2018-11-20T11:47:14.691Z,100264.14
2018-11-20T11:50:08.073Z,100270.39
2018-11-20T11:52:55.296Z,100273.59
2018-11-20T11:55:43.157Z,100270.51
2018-11-20T11:58:30.982Z,100272.77
2018-11-20T12:04:19.526Z,100272.50
2018-11-20T12:07:08.485Z,100267.91
2018-11-20T12:09:45.819Z,100259.38
2018-11-20T12:12:43.288Z,100259.52
2018-11-20T12:15:31.587Z,100263.92
2018-11-20T12:18:20.591Z,100260.96
2018-11-20T12:21:15.089Z,100262.91
2018-11-20T12:24:22.539Z,100268.37
2018-11-20T12:27:26.301Z,100253.44
2018-11-20T12:30:15.630Z,100249.92
2018-11-20T12:33:03.171Z,100247.30
2018-11-20T12:35:50.678Z,100250.92
2018-11-20T12:38:44.725Z,100248.84
2018-11-20T12:41:37.216Z,100256.45
2018-11-20T12:44:25.178Z,100258.78
2018-11-20T12:47:24.580Z,100258.03
2018-11-20T12:50:10.661Z,100257.87
2018-11-20T12:52:57.484Z,100260.54
2018-11-20T12:55:50.561Z,100268.89
2018-11-20T12:58:55.665Z,100257.44
2018-11-20T13:01:50.011Z,100263.96
2018-11-20T13:04:43.886Z,100261.53
2018-11-20T13:07:31.614Z,100263.84
2018-11-20T13:10:20.959Z,100247.80
2018-11-20T13:13:18.116Z,100250.91
2018-11-20T13:16:12.586Z,100248.52
2018-11-20T13:18:54.134Z,100249.41
2018-11-20T13:21:45.832Z,100246.42
2018-11-20T13:24:46.064Z,100248.42
2018-11-20T13:27:40.514Z,100247.61
2018-11-20T13:30:38.488Z,100252.41
2018-11-20T13:33:36.030Z,100246.55
2018-11-20T13:36:27.966Z,100248.91
2018-11-20T13:39:25.450Z,100243.58
2018-11-20T13:42:13.726Z,100245.90
2018-11-20T13:45:04.685Z,100246.77
2018-11-20T13:47:52.960Z,100246.86
2018-11-20T13:50:40.900Z,100241.16
2018-11-20T13:53:28.576Z,100238.23
2018-11-20T13:56:17.776Z,100227.71
2018-11-20T13:59:19.562Z,100231.55
2018-11-20T14:02:13.523Z,100224.85
2018-11-20T14:05:11.732Z,100224.09
2018-11-20T14:08:01.542Z,100226.25
2018-11-20T14:10:48.851Z,100214.71
2018-11-20T14:13:45.787Z,100217.23
2018-11-20T14:16:34.021Z,100201.12
2018-11-20T14:19:28.438Z,100205.09
2018-11-20T14:22:32.081Z,100207.56
2018-11-20T14:25:23.934Z,100210.14
2018-11-20T14:28:14.190Z,100211.55
2018-11-20T14:31:04.155Z,100209.38
2018-11-20T14:33:58.117Z,100207.63
2018-11-20T14:36:45.867Z,100209.55
2018-11-20T14:39:40.212Z,100214.41
2018-11-20T14:42:40.849Z,100217.48
2018-11-20T14:45:31.927Z,100218.68
2018-11-20T14:48:18.836Z,100216.34
2018-11-20T14:51:00.942Z,100226.36
2018-11-20T14:53:56.821Z,100224.48
2018-11-20T14:56:35.600Z,100225.04
2018-11-20T14:59:24.410Z,100225.04
2018-11-20T15:02:19.079Z,100222.62
2018-11-20T15:05:07.917Z,100220.71
2018-11-20T15:07:59.339Z,100228.44
2018-11-20T15:10:43.449Z,100222.19
2018-11-20T15:13:30.908Z,100223.54
2018-11-20T15:16:27.767Z,100229.75
2018-11-20T15:19:21.299Z,100217.38
2018-11-20T15:22:10.045Z,100234.64
2018-11-20T15:25:14.043Z,100222.56
2018-11-20T15:28:11.397Z,100235.39
2018-11-20T15:31:05.330Z,100230.85
2018-11-20T15:33:55.644Z,100229.66
2018-11-20T15:36:49.640Z,100230.05
2018-11-20T15:39:37.972Z,100224.75
2018-11-20T15:42:44.729Z,100218.75
2018-11-20T15:45:29.478Z,100227.91
2018-11-20T15:48:26.326Z,100236.41
2018-11-20T15:51:13.234Z,100242.48
2018-11-20T15:54:01.486Z,100237.51
2018-11-20T15:56:48.848Z,100237.41
2018-11-20T15:59:38.380Z,100224.84
2018-11-20T16:02:28.417Z,100236.31
2018-11-20T16:05:25.757Z,100234.89
2018-11-20T16:08:27.500Z,100229.82
2018-11-20T16:11:15.334Z,100229.88
2018-11-20T16:14:12.995Z,100230.23
2018-11-20T16:17:01.907Z,100233.52
2018-11-20T16:19:55.566Z,100245.89
2018-11-20T16:23:02.558Z,100243.47
2018-11-20T16:25:52.889Z,100252.03
2018-11-20T16:28:53.132Z,100242.84
2018-11-20T16:31:47.093Z,100247.86
2018-11-20T16:34:34.934Z,100251.53
2018-11-20T16:37:29.929Z,100243.37
2018-11-20T16:40:16.592Z,100246.53
2018-11-20T16:43:13.528Z,100246.53
2018-11-20T16:46:00.921Z,100247.83
2018-11-20T16:48:47.061Z,100247.28
2018-11-20T16:51:34.030Z,100244.97
2018-11-20T16:54:22.408Z,100239.66
2018-11-20T16:57:26.528Z,100233.52
2018-11-20T17:00:14.329Z,100246.25
2018-11-20T17:03:14.294Z,100232.63
2018-11-20T17:06:10.563Z,100236.36
2018-11-20T17:09:17.840Z,100244.80
2018-11-20T17:12:09.708Z,100239.77
2018-11-20T17:15:10.544Z,100219.17
2018-11-20T17:17:58.523Z,100258.70
2018-11-20T17:20:51.497Z,100271.33
2018-11-20T17:23:39.978Z,100266.16
2018-11-20T17:26:34.376Z,100273.39
2018-11-20T17:29:25.408Z,100277.52
2018-11-20T17:32:17.881Z,100269.69
2018-11-20T17:35:19.400Z,100283.27
2018-11-20T17:38:22.836Z,100286.08
2018-11-20T17:41:09.782Z,100283.78
2018-11-20T17:43:57.708Z,100287.50
2018-11-20T17:46:45.405Z,100282.30
2018-11-20T17:49:30.343Z,100275.95
2018-11-20T17:52:34.216Z,100284.16
2018-11-20T17:55:28.916Z,100295.14
2018-11-20T17:58:09.599Z,100300.69
2018-11-20T18:00:49.537Z,100286.37
2018-11-20T18:03:49.866Z,100299.89
2018-11-20T18:06:32.021Z,100287.55
2018-11-20T18:09:12.626Z,100283.27
2018-11-20T18:12:04.000Z,100280.31
2018-11-20T18:14:58.351Z,100277.83
2018-11-20T18:17:47.884Z,100292.27
2018-11-20T18:20:34.520Z,100290.27
2018-11-20T18:23:19.323Z,100293.46
2018-11-20T18:26:06.590Z,100288.05
2018-11-20T18:29:09.912Z,100290.55
2018-11-20T18:32:15.159Z,100293.25
2018-11-20T18:35:02.300Z,100299.19
2018-11-20T18:37:50.881Z,100315.92
2018-11-20T18:40:43.484Z,100304.75
2018-11-20T18:43:33.608Z,100306.56
2018-11-20T18:46:27.681Z,100316.63
2018-11-20T18:49:15.131Z,100315.86
2018-11-20T18:52:03.755Z,100319.70
2018-11-20T18:54:50.628Z,100316.95
2018-11-20T18:57:38.918Z,100312.70
2018-11-20T19:00:37.184Z,100305.13
2018-11-20T19:03:23.807Z,100312.53
2018-11-20T19:06:12.621Z,100313.76
2018-11-20T19:08:59.413Z,100314.44
2018-11-20T19:11:51.824Z,100314.61
2018-11-20T19:14:39.473Z,100320.88
2018-11-20T19:17:31.375Z,100317.87
2018-11-20T19:20:19.634Z,100321.64
2018-11-20T19:23:22.834Z,100326.55
2018-11-20T19:26:10.276Z,100338.08
2018-11-20T19:28:53.823Z,100337.60
2018-11-20T19:31:48.523Z,100347.80
2018-11-20T19:34:52.895Z,100348.14
2018-11-20T19:37:50.900Z,100353.61
2018-11-20T19:40:37.502Z,100355.30
2018-11-20T19:43:29.127Z,100363.16
2018-11-20T19:46:26.398Z,100366.05
2018-11-20T19:49:13.827Z,100365.95
2018-11-20T19:52:03.183Z,100372.58
2018-11-20T19:54:51.449Z,100372.17
2018-11-20T19:57:39.765Z,100374.01
2018-11-20T20:00:26.617Z,100381.26
2018-11-20T20:03:14.227Z,100392.95
2018-11-20T20:06:14.625Z,100380.98
2018-11-20T20:09:04.110Z,100389.98
2018-11-20T20:11:58.912Z,100381.96
2018-11-20T20:14:48.360Z,100381.45
2018-11-20T20:17:35.954Z,100388.56
2018-11-20T20:20:26.760Z,100377.55
2018-11-20T20:23:18.413Z,100374.73
2018-11-20T20:26:13.585Z,100369.30
2018-11-20T20:29:00.440Z,100386.05
2018-11-20T20:31:47.663Z,100381.66
2018-11-20T20:34:51.859Z,100386.02
2018-11-20T20:37:49.828Z,100388.30
2018-11-20T20:40:44.218Z,100387.59
2018-11-20T20:43:38.634Z,100386.42
2018-11-20T20:46:27.475Z,100393.03
2018-11-20T20:49:34.577Z,100401.73
2018-11-20T20:52:21.654Z,100417.34
2018-11-20T20:55:10.158Z,100412.79
2018-11-20T20:57:57.812Z,100413.36
2018-11-20T21:00:50.374Z,100409.16
2018-11-20T21:03:46.567Z,100421.82
2018-11-20T21:06:34.092Z,100419.30
2018-11-20T21:09:35.002Z,100409.56
2018-11-20T21:12:33.990Z,100428.72
2018-11-20T21:15:22.860Z,100446.63
2018-11-20T21:18:15.480Z,100439.69
2018-11-20T21:21:15.611Z,100439.07
2018-11-20T21:24:01.703Z,100444.52
2018-11-20T21:26:52.733Z,100440.28
2018-11-20T21:29:41.369Z,100441.20
2018-11-20T21:32:39.136Z,100445.22
2018-11-20T21:35:21.773Z,100451.33
2018-11-20T21:38:09.250Z,100463.81
2018-11-20T21:40:57.548Z,100478.66
2018-11-20T21:43:46.280Z,100479.44
2018-11-20T21:46:30.539Z,100485.56
2018-11-20T21:49:17.712Z,100490.67
2018-11-20T21:52:09.280Z,100475.64
2018-11-20T21:54:57.568Z,100493.32
2018-11-20T21:57:44.456Z,100493.95
2018-11-20T22:01:04.763Z,100487.28
2018-11-20T22:04:01.924Z,100483.06
2018-11-20T22:06:49.556Z,100489.84
2018-11-20T22:09:39.333Z,100489.06
2018-11-20T22:12:30.600Z,100491.31
2018-11-20T22:15:21.885Z,100491.88
2018-11-20T22:18:10.684Z,100502.98
2018-11-20T22:21:03.770Z,100505.73
2018-11-20T22:24:10.319Z,100509.75
2018-11-20T22:27:07.436Z,100516.94
2018-11-20T22:29:58.843Z,100515.23
2018-11-20T22:32:56.999Z,100521.05
2018-11-20T22:35:44.096Z,100519.69
2018-11-20T22:38:39.983Z,100530.68
2018-11-20T22:41:38.227Z,100515.24
2018-11-20T22:44:25.747Z,100514.20
2018-11-20T22:47:02.758Z,100518.83
2018-11-20T22:49:44.640Z,100522.69
2018-11-20T22:52:43.314Z,100514.37
2018-11-20T22:55:23.070Z,100517.36
2018-11-20T22:58:09.063Z,100516.00
2018-11-20T23:00:48.506Z,100513.13
2018-11-20T23:03:43.339Z,100513.21
2018-11-20T23:06:40.479Z,100524.13
2018-11-20T23:09:11.064Z,100512.83
2018-11-20T23:11:40.541Z,100515.16
2018-11-20T23:14:10.345Z,100513.60
2018-11-20T23:16:41.270Z,100528.84
2018-11-20T23:19:10.555Z,100512.78
2018-11-20T23:21:39.899Z,100516.34
2018-11-20T23:24:13.189Z,100510.14
2018-11-20T23:26:44.604Z,100509.33
2018-11-20T23:29:14.387Z,100506.89
2018-11-20T23:31:43.655Z,100503.61
2018-11-20T23:34:12.919Z,100501.25
2018-11-20T23:36:43.528Z,100499.52
2018-11-20T23:39:15.049Z,100502.70
2018-11-20T23:41:44.342Z,100498.94
2018-11-20T23:44:13.612Z,100490.16
2018-11-20T23:46:44.246Z,100502.78
2018-11-20T23:49:15.376Z,100504.05
2018-11-20T23:51:43.735Z,100497.12
2018-11-20T23:54:13.001Z,100500.02
2018-11-20T23:56:42.239Z,100506.66
2018-11-20T23:59:11.878Z,100510.54
